Time;durP1;ratioP1;P1;durP2;ratioP2;P2;SDS_P1;SDS_P2;PMS_P1;PMS_P2;Temp;Humidity;BMP_temperature;BMP_pressure;BME280_temperature;BME280_humidity;BME280_pressure;Samples;Min_cycle;Max_cycle;Signal;HPM_P1;HPM_P2
2021/09/11 00:00:21;;;;;;;;;0.00;0.00;;;;;27.87;45.54;101009.50;5053549;28;45467;-66
2021/09/11 00:02:48;;;;;;;;;0.00;0.00;;;;;27.88;46.02;101012.19;5053041;28;46542;-66
2021/09/11 00:05:15;;;;;;;;;0.00;0.00;;;;;27.87;45.84;101004.94;5053269;28;45714;-66
2021/09/11 00:07:41;;;;;;;;;0.00;0.00;;;;;27.90;45.64;101017.56;5053074;28;45523;-66
2021/09/11 00:10:08;;;;;;;;;0.00;0.00;;;;;27.89;46.27;101015.78;5053850;28;45478;-66
2021/09/11 00:12:36;;;;;;;;;0.00;0.00;;;;;27.90;46.13;101020.31;5052894;28;45477;-66
2021/09/11 00:15:04;;;;;;;;;0.00;0.00;;;;;27.89;45.86;101018.53;5052992;28;45511;-66
2021/09/11 00:17:30;;;;;;;;;0.00;0.00;;;;;27.87;45.92;101017.72;5053065;28;45689;-66
2021/09/11 00:19:55;;;;;;;;;0.00;0.00;;;;;27.86;45.62;101019.53;5053161;28;45718;-65
2021/09/11 00:22:27;;;;;;;;;0.00;0.00;;;;;27.87;45.59;101013.13;5052414;28;45531;-66
2021/09/11 00:24:53;;;;;;;;;0.00;0.00;;;;;27.87;46.19;101021.31;5033132;28;45565;-66
2021/09/11 00:27:18;;;;;;;;;0.00;0.00;;;;;27.88;45.65;101016.78;5052785;28;45723;-67
2021/09/11 00:29:44;;;;;;;;;0.00;0.00;;;;;27.87;46.27;101012.25;5052554;28;45409;-66
2021/09/11 00:32:09;;;;;;;;;0.00;0.00;;;;;27.88;46.24;101016.78;5052573;28;46356;-67
2021/09/11 00:34:35;;;;;;;;;0.00;0.00;;;;;27.86;45.92;101010.47;5052909;28;45532;-66
2021/09/11 00:37:00;;;;;;;;;0.00;0.00;;;;;27.84;46.14;101006.94;5052900;28;45546;-65
2021/09/11 00:39:26;;;;;;;;;0.00;0.00;;;;;27.86;46.13;101007.72;5034665;28;45530;-67
2021/09/11 00:41:51;;;;;;;;;0.00;0.00;;;;;27.86;46.25;101010.47;5052472;28;46257;-67
2021/09/11 00:44:19;;;;;;;;;0.00;0.00;;;;;27.84;45.74;101016.00;5034062;28;45359;-67
2021/09/11 00:46:44;;;;;;;;;0.00;0.00;;;;;27.83;45.78;101013.34;5052735;28;45577;-67
2021/09/11 00:49:10;;;;;;;;;0.00;0.00;;;;;27.83;46.31;101010.63;5034214;28;45511;-67
2021/09/11 00:51:36;;;;;;;;;0.00;0.00;;;;;27.84;46.06;101012.41;5052361;28;45517;-67
2021/09/11 00:54:02;;;;;;;;;0.00;0.00;;;;;27.84;45.78;101012.41;5052596;28;45409;-67
2021/09/11 00:56:30;;;;;;;;;0.00;0.00;;;;;27.84;46.28;101015.13;5052607;28;45456;-67
2021/09/11 00:58:56;;;;;;;;;0.00;0.00;;;;;27.84;45.99;101016.00;5052495;28;45425;-66
2021/09/11 01:01:21;;;;;;;;;0.00;0.00;;;;;27.83;45.71;101018.81;5034003;28;47349;-67
2021/09/11 01:03:47;;;;;;;;;0.00;0.00;;;;;27.84;45.67;101020.59;5052323;28;45321;-67
2021/09/11 01:06:13;;;;;;;;;0.00;0.00;;;;;27.82;46.15;101020.69;5034100;28;45394;-67
2021/09/11 01:08:43;;;;;;;;;0.00;0.00;;;;;27.83;45.57;101013.34;5052741;28;45505;-67
2021/09/11 01:11:09;;;;;;;;;0.00;0.00;;;;;27.84;46.22;101020.59;5033744;28;45405;-67
2021/09/11 01:13:34;;;;;;;;;0.00;0.00;;;;;27.83;46.38;101024.28;5052188;28;45699;-67
2021/09/11 01:16:00;;;;;;;;;0.00;0.00;;;;;27.83;46.31;101029.75;5052279;28;45954;-67
2021/09/11 01:18:26;;;;;;;;;0.00;0.00;;;;;27.78;45.93;101020.94;5052338;28;45470;-67
2021/09/11 01:20:54;;;;;;;;;0.00;0.00;;;;;27.76;45.99;101022.88;5051979;28;45707;-67
2021/09/11 01:23:20;;;;;;;;;0.00;0.00;;;;;27.77;45.57;101027.34;5051643;28;45504;-67
2021/09/11 01:25:47;;;;;;;;;0.00;0.00;;;;;27.81;46.15;101031.69;5052077;28;45851;-67
2021/09/11 01:28:13;;;;;;;;;0.00;0.00;;;;;27.80;45.81;101039.00;5051680;28;45535;-67
2021/09/11 01:30:38;;;;;;;;;0.00;0.00;;;;;27.81;46.11;101045.34;5051817;28;45724;-67
2021/09/11 01:33:05;;;;;;;;;0.00;0.00;;;;;27.78;45.65;101037.31;5052214;28;45706;-67
2021/09/11 01:35:30;;;;;;;;;0.00;0.00;;;;;27.74;45.94;101029.28;5054267;28;45439;-67
2021/09/11 01:37:56;;;;;;;;;0.00;0.00;;;;;27.79;46.09;101033.63;5052229;28;45393;-67
2021/09/11 01:40:22;;;;;;;;;0.00;0.00;;;;;27.79;45.46;101036.34;5051867;28;46263;-67
2021/09/11 01:42:48;;;;;;;;;0.00;0.00;;;;;27.77;46.25;101041.00;5051602;28;45607;-67
2021/09/11 01:45:17;;;;;;;;;0.00;0.00;;;;;27.74;45.69;101040.22;5052049;28;45675;-67
2021/09/11 01:47:44;;;;;;;;;0.00;0.00;;;;;27.73;46.16;101038.47;5051883;28;45449;-67
2021/09/11 01:50:12;;;;;;;;;0.00;0.00;;;;;27.78;46.11;101031.88;5051844;28;46374;-66
2021/09/11 01:52:37;;;;;;;;;0.00;0.00;;;;;27.76;45.50;101039.25;5051622;28;45413;-67
2021/09/11 01:55:07;;;;;;;;;0.00;0.00;;;;;27.77;45.83;101032.81;5051152;28;45408;-67
2021/09/11 01:57:37;;;;;;;;;0.00;0.00;;;;;27.77;46.23;101030.06;5051549;28;45490;-67
2021/09/11 02:00:07;;;;;;;;;0.00;0.00;;;;;27.76;45.50;101028.31;5050979;28;45420;-67
2021/09/11 02:02:32;;;;;;;;;0.00;0.00;;;;;27.74;45.60;101031.13;5050917;28;45512;-67
2021/09/11 02:04:57;;;;;;;;;0.00;0.00;;;;;27.73;45.83;101033.00;5051278;28;45727;-67
2021/09/11 02:07:23;;;;;;;;;0.00;0.00;;;;;27.72;45.79;101023.00;5051268;28;45551;-67
2021/09/11 02:09:48;;;;;;;;;0.00;0.00;;;;;27.72;45.71;101022.13;5050918;28;46266;-67
2021/09/11 02:12:14;;;;;;;;;0.00;0.00;;;;;27.72;45.43;101031.22;5051452;28;45422;-67
2021/09/11 02:14:39;;;;;;;;;0.00;0.00;;;;;27.72;45.63;101033.94;5032867;28;45451;-65
2021/09/11 02:17:05;;;;;;;;;0.00;0.00;;;;;27.73;45.62;101040.28;5051509;28;45394;-65
2021/09/11 02:19:32;;;;;;;;;0.00;0.00;;;;;27.71;46.10;101036.75;5051438;28;46387;-64
2021/09/11 02:21:58;;;;;;;;;0.00;0.00;;;;;27.72;46.15;101042.13;5050682;28;45441;-65
2021/09/11 02:24:23;;;;;;;;;0.00;0.00;;;;;27.71;45.94;101043.13;5050923;28;45516;-66
2021/09/11 02:26:48;;;;;;;;;0.00;0.00;;;;;27.71;45.90;101039.47;5051021;28;45409;-66
2021/09/11 02:29:15;;;;;;;;;0.00;0.00;;;;;27.70;46.09;101035.88;5050743;28;46224;-66
2021/09/11 02:31:41;;;;;;;;;0.00;0.00;;;;;27.70;46.25;101041.34;5051255;28;45500;-66
2021/09/11 02:34:06;;;;;;;;;0.00;0.00;;;;;27.69;46.29;101031.38;5051361;28;45495;-66
2021/09/11 02:36:32;;;;;;;;;0.00;0.00;;;;;27.70;46.02;101040.47;5051214;28;45500;-65
2021/09/11 02:38:57;;;;;;;;;0.00;0.00;;;;;27.70;46.07;101024.06;5032430;28;46071;-66
2021/09/11 02:41:22;;;;;;;;;0.00;0.00;;;;;27.70;45.80;101037.72;5050997;28;45390;-65
2021/09/11 02:43:48;;;;;;;;;0.00;0.00;;;;;27.68;46.05;101024.13;5051156;28;45474;-65
2021/09/11 02:46:15;;;;;;;;;0.00;0.00;;;;;27.70;45.54;101027.69;5051129;28;45722;-67
2021/09/11 02:48:40;;;;;;;;;0.00;0.00;;;;;27.67;46.19;101019.66;5054252;28;45777;-66
2021/09/11 02:51:05;;;;;;;;;0.00;0.00;;;;;27.70;45.69;101040.47;5035732;28;45459;-66
2021/09/11 02:53:31;;;;;;;;;0.00;0.00;;;;;27.68;45.62;101026.88;5054174;28;45377;-66
2021/09/11 02:55:56;;;;;;;;;0.00;0.00;;;;;27.69;45.95;101028.66;5054486;28;45480;-66
2021/09/11 02:58:23;;;;;;;;;0.00;0.00;;;;;27.70;45.69;101024.94;5053897;28;46292;-66
2021/09/11 03:00:51;;;;;;;;;0.00;0.00;;;;;27.67;45.71;101027.84;5054340;28;45389;-65
2021/09/11 03:03:17;;;;;;;;;0.00;0.00;;;;;27.70;45.55;101029.53;5054187;28;45674;-65
2021/09/11 03:05:44;;;;;;;;;0.00;0.00;;;;;27.67;45.70;101027.84;5054355;28;45488;-65
2021/09/11 03:08:09;;;;;;;;;0.00;0.00;;;;;27.67;46.22;101029.69;5054192;28;45436;-66
2021/09/11 03:10:35;;;;;;;;;0.00;0.00;;;;;27.69;45.67;101039.59;5035688;28;45441;-66
2021/09/11 03:13:00;;;;;;;;;0.00;0.00;;;;;27.68;45.84;101028.72;5053646;28;45546;-66
2021/09/11 03:15:26;;;;;;;;;0.00;0.00;;;;;27.68;45.57;101034.19;5054138;28;45401;-66
2021/09/11 03:17:51;;;;;;;;;0.00;0.00;;;;;27.67;45.48;101033.31;5054016;28;45540;-65
2021/09/11 03:20:17;;;;;;;;;0.00;0.00;;;;;27.66;46.02;101026.06;5053721;28;45682;-66
2021/09/11 03:22:42;;;;;;;;;0.00;0.00;;;;;27.65;45.64;101024.31;5035332;28;45469;-66
2021/09/11 03:25:08;;;;;;;;;0.00;0.00;;;;;27.63;45.94;101031.72;5054045;28;45423;-66
2021/09/11 03:27:34;;;;;;;;;0.00;0.00;;;;;27.66;46.24;101037.00;5053601;28;47208;-65
2021/09/11 03:30:00;;;;;;;;;0.00;0.00;;;;;27.64;46.01;101027.13;5035196;28;45560;-66
2021/09/11 03:32:25;;;;;;;;;0.00;0.00;;;;;27.64;45.84;101027.13;5053622;28;45468;-66
2021/09/11 03:34:51;;;;;;;;;0.00;0.00;;;;;27.64;45.66;101025.28;5053487;28;45792;-66
2021/09/11 03:37:16;;;;;;;;;0.00;0.00;;;;;27.64;45.77;101029.84;5053042;28;45558;-66
2021/09/11 03:39:41;;;;;;;;;0.00;0.00;;;;;27.63;45.63;101028.06;5053158;28;45609;-66
2021/09/11 03:42:08;;;;;;;;;0.00;0.00;;;;;27.64;46.03;101025.28;5056426;28;45742;-66
2021/09/11 03:44:33;;;;;;;;;0.00;0.00;;;;;27.60;46.01;101020.94;5053587;28;45501;-66
2021/09/11 03:46:59;;;;;;;;;0.00;0.00;;;;;27.62;45.48;101032.66;5053021;28;46000;-66
2021/09/11 03:49:24;;;;;;;;;0.00;0.00;;;;;27.61;46.15;101025.44;5053639;28;45492;-66
2021/09/11 03:51:49;;;;;;;;;0.00;0.00;;;;;27.59;45.93;101021.91;5053491;28;45427;-66
2021/09/11 03:54:15;;;;;;;;;0.00;0.00;;;;;27.59;45.74;101021.91;5053810;28;45428;-66
2021/09/11 03:56:40;;;;;;;;;0.00;0.00;;;;;27.61;45.85;101028.19;5053429;28;45793;-66
2021/09/11 03:59:06;;;;;;;;;0.00;0.00;;;;;27.59;45.86;101030.09;5053007;28;45530;-65
2021/09/11 04:01:31;;;;;;;;;0.00;0.00;;;;;27.58;46.07;101025.59;5053421;28;45664;-65
2021/09/11 04:03:56;;;;;;;;;0.00;0.00;;;;;27.57;45.77;101023.84;5053258;28;45426;-66
2021/09/11 04:06:23;;;;;;;;;0.00;0.00;;;;;27.60;46.10;101031.84;5052898;28;45346;-66
2021/09/11 04:08:49;;;;;;;;;0.00;0.00;;;;;27.59;46.10;101037.41;5053091;28;45571;-66
2021/09/11 04:11:14;;;;;;;;;0.00;0.00;;;;;27.57;45.54;101034.78;5053015;28;45512;-66
2021/09/11 04:13:40;;;;;;;;;0.00;0.00;;;;;27.57;46.04;101032.03;5053178;28;45579;-66
2021/09/11 04:16:05;;;;;;;;;0.00;0.00;;;;;27.58;45.42;101042.00;5052843;28;46006;-66
2021/09/11 04:18:30;;;;;;;;;0.00;0.00;;;;;27.56;45.90;101038.44;5052397;28;45504;-66
2021/09/11 04:20:56;;;;;;;;;0.00;0.00;;;;;27.57;45.50;101047.53;5052670;28;45784;-66
2021/09/11 04:23:21;;;;;;;;;0.00;0.00;;;;;27.55;46.15;101042.13;5052682;28;45502;-66
2021/09/11 04:25:47;;;;;;;;;0.00;0.00;;;;;27.54;45.54;101040.38;5052699;28;45496;-66
2021/09/11 04:28:12;;;;;;;;;0.00;0.00;;;;;27.54;45.83;101045.84;5052781;28;45735;-66
2021/09/11 04:30:38;;;;;;;;;0.00;0.00;;;;;27.54;45.63;101046.72;5052959;28;45447;-66
2021/09/11 04:33:04;;;;;;;;;0.00;0.00;;;;;27.54;45.60;101043.97;5052816;28;45442;-66
2021/09/11 04:35:30;;;;;;;;;0.00;0.00;;;;;27.51;46.13;101035.97;5034109;28;47387;-66
2021/09/11 04:37:58;;;;;;;;;0.00;0.00;;;;;27.54;45.78;101041.25;5052794;28;45826;-66
2021/09/11 04:40:24;;;;;;;;;0.00;0.00;;;;;27.54;46.11;101046.72;5034475;28;45458;-66
2021/09/11 04:42:49;;;;;;;;;0.00;0.00;;;;;27.54;45.74;101034.91;5052954;28;45406;-66
2021/09/11 04:45:14;;;;;;;;;0.00;0.00;;;;;27.54;46.16;101043.09;5052513;28;46045;-66
2021/09/11 04:47:40;;;;;;;;;0.00;0.00;;;;;27.53;45.76;101044.97;5052537;28;45535;-66
2021/09/11 04:50:06;;;;;;;;;0.00;0.00;;;;;27.50;45.60;101038.78;5034392;28;45859;-66
2021/09/11 04:52:32;;;;;;;;;0.00;0.00;;;;;27.53;45.99;101039.50;5052585;28;45568;-65
2021/09/11 04:54:57;;;;;;;;;0.00;0.00;;;;;27.53;45.37;101046.78;5052129;28;46001;-65
2021/09/11 04:57:22;;;;;;;;;0.00;0.00;;;;;27.53;45.91;101044.97;5051615;28;45547;-65
2021/09/11 04:59:48;;;;;;;;;0.00;0.00;;;;;27.53;45.89;101044.06;5052086;28;45963;-65
2021/09/11 05:02:13;;;;;;;;;0.00;0.00;;;;;27.52;45.62;101047.78;5052282;28;45450;-66
2021/09/11 05:04:40;;;;;;;;;0.00;0.00;;;;;27.48;45.53;101049.78;5051750;28;46174;-65
2021/09/11 05:07:05;;;;;;;;;0.00;0.00;;;;;27.53;46.06;101049.53;5052329;28;45479;-67
2021/09/11 05:09:38;;;;;;;;;0.00;0.00;;;;;27.53;46.07;101055.00;5051730;28;45450;-65
2021/09/11 05:12:04;;;;;;;;;0.00;0.00;;;;;27.50;45.42;101047.84;5052095;28;45461;-66
2021/09/11 05:14:31;;;;;;;;;0.00;0.00;;;;;27.52;45.65;101059.56;5033704;28;47467;-66
2021/09/11 05:16:57;;;;;;;;;0.00;0.00;;;;;27.51;45.98;101056.91;5051971;28;45490;-66
2021/09/11 05:19:23;;;;;;;;;0.00;0.00;;;;;27.49;45.32;101058.84;5052266;28;45411;-66
2021/09/11 05:21:48;;;;;;;;;0.00;0.00;;;;;27.47;45.92;101058.94;5052352;28;45416;-66
2021/09/11 05:24:16;;;;;;;;;0.00;0.00;;;;;27.48;45.48;101057.09;5051584;28;45536;-66
2021/09/11 05:26:41;;;;;;;;;0.00;0.00;;;;;27.49;45.92;101064.31;5051961;28;45593;-66
2021/09/11 05:29:07;;;;;;;;;0.00;0.00;;;;;27.49;46.03;101069.78;5052012;28;45525;-65
2021/09/11 05:31:32;;;;;;;;;0.00;0.00;;;;;27.48;45.46;101065.28;5051953;28;45820;-65
2021/09/11 05:33:58;;;;;;;;;0.00;0.00;;;;;27.46;45.83;101059.91;5051259;28;45533;-65
2021/09/11 05:36:23;;;;;;;;;0.00;0.00;;;;;27.48;46.09;101063.44;5034236;28;45458;-66
2021/09/11 05:38:49;;;;;;;;;0.00;0.00;;;;;27.48;46.04;101057.09;5053472;28;45493;-66
2021/09/11 05:41:14;;;;;;;;;0.00;0.00;;;;;27.46;45.42;101056.28;5051991;28;45352;-66
2021/09/11 05:43:39;;;;;;;;;0.00;0.00;;;;;27.46;45.94;101059.03;5051540;28;45521;-65
2021/09/11 05:46:05;;;;;;;;;0.00;0.00;;;;;27.45;46.00;101062.69;5033576;28;45463;-65
2021/09/11 05:48:30;;;;;;;;;0.00;0.00;;;;;27.44;45.92;101066.41;5051652;28;45631;-65
2021/09/11 05:50:57;;;;;;;;;0.00;0.00;;;;;27.44;45.34;101067.28;5051705;28;45743;-65
2021/09/11 05:53:22;;;;;;;;;0.00;0.00;;;;;27.44;45.77;101083.66;5051747;28;45389;-65
2021/09/11 05:55:47;;;;;;;;;0.00;0.00;;;;;27.44;45.34;101083.66;5051401;28;45515;-65
2021/09/11 05:58:13;;;;;;;;;0.00;0.00;;;;;27.43;45.39;101092.84;5051325;28;45489;-65
2021/09/11 06:00:38;;;;;;;;;0.00;0.00;;;;;27.44;45.28;101099.19;5051735;28;45341;-66
2021/09/11 06:03:03;;;;;;;;;1.00;0.00;;;;;27.43;45.97;101101.03;5051183;28;46421;-66
2021/09/11 06:05:29;;;;;;;;;0.00;0.00;;;;;27.43;45.56;101106.50;5051371;28;45489;-66
2021/09/11 06:07:54;;;;;;;;;0.00;0.00;;;;;27.42;45.56;101102.00;5051378;28;45447;-66
2021/09/11 06:10:19;;;;;;;;;0.00;0.00;;;;;27.43;45.57;101105.59;5051599;28;45442;-65
2021/09/11 06:12:45;;;;;;;;;0.00;0.00;;;;;27.43;45.44;101113.78;5051319;28;46163;-67
2021/09/11 06:15:12;;;;;;;;;0.00;0.00;;;;;27.43;46.19;101108.31;5051055;28;45677;-65
2021/09/11 06:17:38;;;;;;;;;0.00;0.00;;;;;27.43;46.16;101124.72;5051217;28;45544;-65
2021/09/11 06:20:05;;;;;;;;;0.00;0.00;;;;;27.43;45.44;101116.53;5033089;28;45732;-66
2021/09/11 06:22:36;;;;;;;;;0.00;0.00;;;;;27.43;45.63;101119.25;5052629;28;45785;-66
2021/09/11 06:25:02;;;;;;;;;0.00;0.00;;;;;27.44;45.90;101121.03;5054742;28;45766;-66
2021/09/11 06:27:27;;;;;;;;;0.00;0.00;;;;;27.44;45.79;101112.84;5054460;28;45484;-65
2021/09/11 06:29:53;;;;;;;;;0.00;0.00;;;;;27.44;45.71;101116.44;5054872;28;45477;-65
2021/09/11 06:32:18;;;;;;;;;0.00;0.00;;;;;27.44;45.89;101110.13;5036518;28;46238;-65
2021/09/11 06:34:43;;;;;;;;;0.00;0.00;;;;;27.44;45.38;101116.44;5054341;28;45604;-65
2021/09/11 06:37:09;;;;;;;;;0.00;0.00;;;;;27.45;45.67;101117.34;5054701;28;45497;-66
2021/09/11 06:39:36;;;;;;;;;0.00;0.00;;;;;27.45;45.79;101122.78;5054616;28;45437;-65
2021/09/11 06:42:01;;;;;;;;;0.00;0.00;;;;;27.45;45.77;101118.25;5054651;28;45774;-66
2021/09/11 06:44:26;;;;;;;;;0.00;0.00;;;;;27.47;45.89;101118.13;5054756;28;45491;-65
2021/09/11 06:46:52;;;;;;;;;0.00;0.00;;;;;27.48;45.95;101130.84;5035946;28;45475;-66
2021/09/11 06:49:17;;;;;;;;;0.00;0.00;;;;;27.46;45.62;101113.66;5054427;28;45430;-67
2021/09/11 06:51:43;;;;;;;;;0.00;0.00;;;;;27.49;45.38;101118.94;5054635;28;45437;-65
2021/09/11 06:54:08;;;;;;;;;0.00;0.00;;;;;27.48;45.73;101119.91;5054208;28;45451;-65
2021/09/11 06:56:33;;;;;;;;;0.00;0.00;;;;;27.49;45.55;101124.41;5054500;28;45424;-66
2021/09/11 06:58:59;;;;;;;;;0.00;0.00;;;;;27.49;45.68;101124.41;5054577;28;45510;-66
2021/09/11 07:01:24;;;;;;;;;0.00;0.00;;;;;27.51;45.16;101133.41;5053457;28;46206;-66
2021/09/11 07:03:51;;;;;;;;;0.00;0.00;;;;;27.52;45.64;101129.72;5054244;28;45500;-66
2021/09/11 07:06:16;;;;;;;;;0.00;0.00;;;;;27.51;45.30;101138.88;5054239;28;45456;-66
2021/09/11 07:08:41;;;;;;;;;0.00;0.00;;;;;27.49;45.72;101144.44;5054385;28;45526;-66
2021/09/11 07:11:11;;;;;;;;;0.00;0.00;;;;;27.49;45.60;101140.81;5054024;28;46222;-66
2021/09/11 07:13:38;;;;;;;;;0.00;0.00;;;;;27.50;45.39;101148.03;5054058;28;45464;-66
2021/09/11 07:16:04;;;;;;;;;0.00;0.00;;;;;27.54;45.33;101149.66;5054231;28;45483;-66
2021/09/11 07:18:29;;;;;;;;;0.00;0.00;;;;;27.54;45.67;101149.66;5035853;28;45522;-66
2021/09/11 07:20:54;;;;;;;;;0.00;0.00;;;;;27.55;45.51;101156.88;5053465;28;45992;-65
2021/09/11 07:23:20;;;;;;;;;0.00;0.00;;;;;27.56;45.28;101157.78;5053721;28;45459;-65
2021/09/11 07:25:45;;;;;;;;;0.00;0.00;;;;;27.54;45.47;101145.06;5054554;28;45858;-66
2021/09/11 07:28:11;;;;;;;;;0.00;0.00;;;;;27.56;45.32;101145.00;5054020;28;45677;-66
2021/09/11 07:30:36;;;;;;;;;0.00;0.00;;;;;27.58;45.51;101145.81;5053885;28;46279;-66
2021/09/11 07:33:02;;;;;;;;;0.00;0.00;;;;;27.59;45.32;101152.16;5034896;28;45564;-66
2021/09/11 07:35:28;;;;;;;;;0.00;0.00;;;;;27.59;45.60;101150.31;5056186;28;45557;-66
2021/09/11 07:37:53;;;;;;;;;0.00;0.00;;;;;27.60;44.85;101143.88;5035416;28;45438;-65
2021/09/11 07:40:18;;;;;;;;;0.00;0.00;;;;;27.62;45.57;101152.88;5035378;28;45478;-65
2021/09/11 07:42:44;;;;;;;;;0.00;0.00;;;;;27.63;44.96;101153.75;5053761;28;45417;-65
2021/09/11 07:45:13;;;;;;;;;0.00;0.00;;;;;27.62;44.83;101150.16;5053966;28;45726;-65
2021/09/11 07:47:39;;;;;;;;;0.00;0.00;;;;;27.65;45.58;101160.94;5035231;28;45482;-66
2021/09/11 07:50:05;;;;;;;;;0.00;0.00;;;;;27.65;45.42;101158.22;5053627;28;45839;-65
2021/09/11 07:52:30;;;;;;;;;0.00;0.00;;;;;27.64;45.23;101156.44;5052214;28;45510;-65
2021/09/11 07:54:56;;;;;;;;;0.00;0.00;;;;;27.67;44.81;101160.84;5053921;28;45525;-66
2021/09/11 07:57:21;;;;;;;;;0.00;0.00;;;;;27.65;44.66;101152.75;5053992;28;45884;-66
2021/09/11 07:59:46;;;;;;;;;0.00;0.00;;;;;27.68;45.03;101157.16;5053494;28;46135;-66
2021/09/11 08:02:13;;;;;;;;;0.00;0.00;;;;;27.68;45.50;101163.50;5053187;28;45501;-65
2021/09/11 08:04:38;;;;;;;;;0.00;0.00;;;;;27.69;44.99;101158.91;5053456;28;45670;-65
2021/09/11 08:07:04;;;;;;;;;0.00;0.00;;;;;27.71;45.03;101168.84;5053161;28;45453;-66
2021/09/11 08:09:29;;;;;;;;;0.00;0.00;;;;;27.73;44.70;101171.47;5034813;28;46369;-66
2021/09/11 08:11:54;;;;;;;;;0.00;0.00;;;;;27.74;44.81;101174.13;5052979;28;45698;-66
2021/09/11 08:14:20;;;;;;;;;0.00;0.00;;;;;27.73;44.97;101172.38;5053259;28;45436;-66
2021/09/11 08:16:45;;;;;;;;;0.00;0.00;;;;;27.77;45.19;101172.19;5053483;28;45497;-66
2021/09/11 08:19:10;;;;;;;;;0.00;0.00;;;;;27.78;45.13;101179.44;5053165;28;45494;-65
2021/09/11 08:21:36;;;;;;;;;0.00;0.00;;;;;27.78;44.86;101179.44;5053135;28;45796;-66
2021/09/11 08:24:01;;;;;;;;;0.00;0.00;;;;;27.76;45.02;101179.53;5053244;28;45524;-66
2021/09/11 08:26:27;;;;;;;;;0.00;0.00;;;;;27.84;44.69;101190.94;5053471;28;45374;-66
2021/09/11 08:28:52;;;;;;;;;0.00;0.00;;;;;27.84;44.94;101190.94;5052892;28;46472;-65
2021/09/11 08:31:19;;;;;;;;;0.00;0.00;;;;;27.86;44.80;101197.22;5034423;28;45433;-65
2021/09/11 08:33:45;;;;;;;;;0.00;0.00;;;;;27.85;44.75;101184.50;5052857;28;45519;-66
2021/09/11 08:36:10;;;;;;;;;0.00;0.00;;;;;27.90;44.63;101195.25;5034820;28;45910;-66
2021/09/11 08:38:36;;;;;;;;;0.00;0.00;;;;;27.91;44.83;101195.19;5052495;28;45535;-66
2021/09/11 08:41:03;;;;;;;;;0.00;0.00;;;;;27.92;44.33;101198.78;5052589;28;46011;-66
2021/09/11 08:43:29;;;;;;;;;0.00;0.00;;;;;27.93;44.63;101196.00;5052845;28;45515;-66
2021/09/11 08:45:55;;;;;;;;;0.00;0.00;;;;;27.93;44.68;101186.88;5051794;28;45379;-66
2021/09/11 08:48:20;;;;;;;;;0.50;0.00;;;;;27.97;44.38;101193.06;5052457;28;46832;-66
2021/09/11 08:50:46;;;;;;;;;0.00;0.00;;;;;27.95;44.41;101179.47;5052643;28;45494;-66
2021/09/11 08:53:11;;;;;;;;;0.00;0.00;;;;;27.97;44.88;101191.22;5052703;28;45779;-66
2021/09/11 08:55:37;;;;;;;;;0.00;0.00;;;;;28.01;44.40;101192.84;5034824;28;45482;-66
2021/09/11 08:58:06;;;;;;;;;0.00;0.00;;;;;27.98;44.80;101184.81;5052308;28;46264;-66
2021/09/11 09:00:38;;;;;;;;;0.00;0.00;;;;;28.03;44.65;101196.38;5052592;28;45460;-66
2021/09/11 09:03:35;;;;;;;;;0.00;0.00;;;;;28.03;44.14;101188.16;5052330;28;45420;-66
2021/09/11 09:06:09;;;;;;;;;0.00;0.00;;;;;28.05;44.07;101188.97;5052377;28;45463;-66
2021/09/11 09:08:35;;;;;;;;;0.00;0.00;;;;;28.05;44.70;101188.97;5052542;28;46107;-65
2021/09/11 09:11:30;;;;;;;;;0.00;0.00;;;;;28.06;44.23;101190.75;5052425;28;45738;-65
2021/09/11 09:14:14;;;;;;;;;0.00;0.00;;;;;28.06;44.14;101193.50;5052421;28;45931;-66
2021/09/11 09:16:42;;;;;;;;;0.00;0.00;;;;;28.08;44.11;101196.16;5052732;28;45503;-66
2021/09/11 09:19:25;;;;;;;;;0.00;0.00;;;;;28.08;43.70;101188.84;5052057;28;45526;-66
2021/09/11 09:21:53;;;;;;;;;0.00;0.00;;;;;28.08;44.12;101191.56;5052520;28;45503;-66
2021/09/11 09:24:36;;;;;;;;;0.00;0.00;;;;;28.09;44.63;101196.06;5052134;28;45472;-66
2021/09/11 09:27:08;;;;;;;;;0.00;0.00;;;;;28.09;44.03;101182.38;5052656;28;45488;-66
2021/09/11 09:29:36;;;;;;;;;0.00;0.00;;;;;28.10;44.61;101181.44;5051818;28;46330;-66
2021/09/11 09:32:03;;;;;;;;;0.00;0.00;;;;;28.11;43.66;101185.91;5052041;28;45843;-66
2021/09/11 09:34:38;;;;;;;;;0.00;0.00;;;;;28.11;43.54;101188.66;5036359;28;44864;-66
2021/09/11 09:37:06;;;;;;;;;0.00;0.00;;;;;28.10;43.64;101189.63;5051652;28;45404;-66
2021/09/11 09:39:47;;;;;;;;;0.00;0.00;;;;;28.15;43.54;101193.97;5052095;28;45723;-66
2021/09/11 09:42:16;;;;;;;;;0.00;0.00;;;;;28.12;43.55;101187.69;5051866;28;45459;-66
2021/09/11 09:44:50;;;;;;;;;0.00;0.00;;;;;28.16;43.94;101184.78;5051648;28;45478;-66
2021/09/11 09:47:19;;;;;;;;;0.00;0.00;;;;;28.17;44.03;101186.56;5051989;28;45332;-66
2021/09/11 09:50:05;;;;;;;;;0.00;0.00;;;;;28.16;43.89;101184.78;5051405;28;46044;-66
2021/09/11 09:52:30;;;;;;;;;0.00;0.00;;;;;28.18;44.13;101189.25;5051012;28;45749;-66
2021/09/11 09:54:56;;;;;;;;;0.00;0.00;;;;;28.19;43.40;101185.53;5052163;28;45564;-65
2021/09/11 09:57:22;;;;;;;;;0.00;0.00;;;;;28.17;43.82;101170.16;5051798;28;45576;-65
2021/09/11 09:59:50;;;;;;;;;0.00;0.00;;;;;28.20;43.42;101184.56;5032924;28;45972;-65
2021/09/11 10:02:15;;;;;;;;;0.00;0.00;;;;;28.21;43.60;101182.72;5051595;28;45454;-66
2021/09/11 10:04:41;;;;;;;;;0.00;0.00;;;;;28.23;43.29;101175.31;5033924;28;45409;-66
2021/09/11 10:07:09;;;;;;;;;0.00;0.00;;;;;28.23;43.36;101176.19;5051899;28;45507;-66
2021/09/11 10:09:36;;;;;;;;;0.00;0.00;;;;;28.24;44.09;101171.63;5050498;28;45635;-66
2021/09/11 10:12:01;;;;;;;;;0.00;0.00;;;;;28.24;43.64;101179.84;5051865;28;45460;-67
2021/09/11 10:14:33;;;;;;;;;0.00;0.00;;;;;28.23;43.98;101176.19;5033279;28;45446;-66
2021/09/11 10:17:02;;;;;;;;;0.00;0.00;;;;;28.25;43.54;101173.38;5051449;28;45385;-65
2021/09/11 10:19:30;;;;;;;;;0.00;0.00;;;;;28.26;43.40;101177.91;5051073;28;45511;-67
2021/09/11 10:22:14;;;;;;;;;0.00;0.00;;;;;28.27;43.46;101174.19;5051038;28;45522;-67
2021/09/11 10:24:40;;;;;;;;;0.00;0.00;;;;;28.27;43.01;101174.19;5051034;28;45515;-67
2021/09/11 10:27:19;;;;;;;;;0.00;0.00;;;;;28.28;43.21;101167.75;5051502;28;45524;-67
2021/09/11 10:29:49;;;;;;;;;0.00;0.00;;;;;28.28;43.22;101179.56;5050868;28;45795;-67
2021/09/11 10:32:20;;;;;;;;;0.00;0.00;;;;;28.28;43.42;101168.63;5051352;28;45628;-67
2021/09/11 10:34:59;;;;;;;;;0.00;0.00;;;;;28.31;42.79;101171.19;5051130;28;45615;-67
2021/09/11 10:37:27;;;;;;;;;0.00;0.00;;;;;28.32;43.11;101166.63;5051147;28;45471;-66
2021/09/11 10:40:22;;;;;;;;;0.00;0.00;;;;;28.33;42.91;101166.53;5050727;28;45447;-65
2021/09/11 10:43:06;;;;;;;;;0.00;0.00;;;;;28.34;43.17;101161.97;5050613;28;45511;-65
2021/09/11 10:45:37;;;;;;;;;0.00;0.00;;;;;28.35;42.80;101169.19;5051087;28;45847;-65
2021/09/11 10:48:06;;;;;;;;;0.00;0.00;;;;;28.36;43.26;101170.97;5032650;28;45516;-65
2021/09/11 10:50:39;;;;;;;;;0.00;0.00;;;;;28.38;43.16;101170.84;5050775;28;46140;-65
2021/09/11 10:53:21;;;;;;;;;0.00;0.00;;;;;28.38;43.22;101169.03;5050640;28;45511;-66
2021/09/11 10:55:48;;;;;;;;;0.00;0.00;;;;;28.39;42.71;101175.38;5050623;28;45591;-66
2021/09/11 10:58:27;;;;;;;;;0.00;0.00;;;;;28.38;42.85;101163.56;5051019;28;45566;-66
2021/09/11 11:00:59;;;;;;;;;0.00;0.00;;;;;28.40;42.67;101167.09;5050204;28;45520;-66
2021/09/11 11:03:25;;;;;;;;;0.00;0.00;;;;;28.41;42.48;101166.13;5050673;28;45334;-66
2021/09/11 11:06:01;;;;;;;;;0.00;0.00;;;;;28.42;42.69;101167.91;5050795;28;45424;-67
2021/09/11 11:08:33;;;;;;;;;0.00;0.00;;;;;28.42;42.90;101169.72;5051943;28;45460;-66
2021/09/11 11:11:05;;;;;;;;;0.00;0.00;;;;;28.43;42.41;101171.50;5053829;28;45444;-66
2021/09/11 11:13:30;;;;;;;;;0.00;0.00;;;;;28.41;42.91;101173.44;5054121;28;45822;-66
2021/09/11 11:15:57;;;;;;;;;0.00;0.00;;;;;28.43;42.16;101172.38;5053790;28;45626;-66
2021/09/11 11:18:27;;;;;;;;;0.00;0.00;;;;;28.42;42.29;101167.91;5054077;28;45476;-66
2021/09/11 11:20:53;;;;;;;;;0.00;0.00;;;;;28.45;42.64;101173.19;5053613;28;45482;-66
2021/09/11 11:23:20;;;;;;;;;0.00;0.00;;;;;28.45;42.42;101169.56;5053270;28;45442;-65